createdAt,value
2019-05-02T00:01:57.759Z,7.85
2019-05-02T00:04:26.817Z,7.67
2019-05-02T00:07:04.521Z,8.30
2019-05-02T00:09:34.758Z,8.33
2019-05-02T00:12:07.224Z,7.67
2019-05-02T00:14:37.190Z,7.50
2019-05-02T00:17:06.888Z,8.00
2019-05-02T00:19:36.839Z,8.60
2019-05-02T00:22:06.952Z,7.90
2019-05-02T00:24:39.240Z,8.80
2019-05-02T00:27:07.161Z,8.05
2019-05-02T00:29:36.489Z,7.92
2019-05-02T00:32:05.607Z,9.40
2019-05-02T00:34:34.295Z,8.18
2019-05-02T00:37:03.520Z,7.83
2019-05-02T00:39:32.202Z,9.85
2019-05-02T00:42:12.078Z,9.25
2019-05-02T00:44:31.354Z,9.18
2019-05-02T00:47:01.672Z,8.73
2019-05-02T00:49:35.206Z,9.08
2019-05-02T00:52:01.355Z,9.00
2019-05-02T00:54:31.222Z,8.88
2019-05-02T00:56:59.903Z,9.88
2019-05-02T00:59:28.677Z,9.80
2019-05-02T01:02:17.391Z,9.50
2019-05-02T01:04:47.861Z,11.28
2019-05-02T01:07:20.288Z,11.10
2019-05-02T01:09:48.069Z,11.55
2019-05-02T01:12:26.196Z,12.80
2019-05-02T01:14:47.426Z,13.22
2019-05-02T01:17:16.202Z,13.75
2019-05-02T01:19:47.278Z,14.03
2019-05-02T01:22:17.314Z,13.62
2019-05-02T01:24:46.101Z,13.05
2019-05-02T01:27:22.623Z,13.28
2019-05-02T01:30:11.042Z,13.70
2019-05-02T01:32:53.940Z,12.55
2019-05-02T01:35:26.917Z,13.30
2019-05-02T01:38:12.376Z,14.15
2019-05-02T01:40:41.084Z,14.00
2019-05-02T01:43:26.791Z,15.50
2019-05-02T01:45:55.631Z,14.40
2019-05-02T01:48:25.126Z,14.83
2019-05-02T01:50:53.899Z,13.83
2019-05-02T01:53:22.670Z,15.50
2019-05-02T01:55:51.878Z,16.15
2019-05-02T01:58:22.911Z,14.58
2019-05-02T02:00:51.928Z,16.00
2019-05-02T02:03:20.591Z,15.23
2019-05-02T02:05:49.460Z,16.75
2019-05-02T02:08:18.124Z,16.85
2019-05-02T02:10:50.554Z,17.23
2019-05-02T02:13:17.266Z,17.00
2019-05-02T02:15:48.079Z,17.45
2019-05-02T02:18:22.349Z,16.93
2019-05-02T02:20:56.022Z,16.55
2019-05-02T02:23:32.356Z,17.75
2019-05-02T02:26:06.937Z,19.20
2019-05-02T02:28:36.260Z,18.32
2019-05-02T02:31:07.772Z,19.55
2019-05-02T02:33:41.127Z,21.75
2019-05-02T02:36:06.056Z,22.02
2019-05-02T02:38:35.405Z,21.65
2019-05-02T02:41:06.392Z,23.12
2019-05-02T02:43:35.202Z,22.05
2019-05-02T02:46:23.477Z,22.42
2019-05-02T02:48:52.207Z,23.35
2019-05-02T02:51:26.235Z,22.60
2019-05-02T02:54:02.639Z,23.02
2019-05-02T02:56:21.811Z,23.20
2019-05-02T02:58:50.586Z,24.87
2019-05-02T03:01:27.517Z,22.55
2019-05-02T03:03:49.835Z,24.37
2019-05-02T03:06:19.011Z,25.97
2019-05-02T03:08:49.199Z,25.37
2019-05-02T03:11:23.502Z,25.27
2019-05-02T03:14:05.723Z,25.32
2019-05-02T03:16:29.593Z,26.62
2019-05-02T03:19:01.611Z,26.65
2019-05-02T03:21:30.363Z,26.87
2019-05-02T03:24:03.146Z,27.58
2019-05-02T03:26:29.785Z,28.30
2019-05-02T03:29:00.729Z,28.85
2019-05-02T03:31:30.832Z,27.32
2019-05-02T03:34:01.074Z,28.00
2019-05-02T03:36:36.528Z,28.20
2019-05-02T03:39:13.524Z,28.20
2019-05-02T03:41:32.386Z,30.12
2019-05-02T03:44:11.291Z,27.70
2019-05-02T03:46:32.776Z,29.18
2019-05-02T03:49:07.265Z,28.23
2019-05-02T03:51:31.936Z,29.42
2019-05-02T03:54:07.728Z,29.25
2019-05-02T03:56:32.515Z,28.85
2019-05-02T03:59:01.247Z,30.80
2019-05-02T04:01:34.553Z,30.60
2019-05-02T04:04:04.712Z,30.55
2019-05-02T04:06:35.241Z,30.35
2019-05-02T04:09:05.850Z,31.55
2019-05-02T04:11:39.174Z,33.63
2019-05-02T04:14:15.254Z,30.15
2019-05-02T04:16:37.524Z,31.10
2019-05-02T04:19:06.252Z,32.48
2019-05-02T04:21:35.559Z,31.93
2019-05-02T04:24:12.833Z,31.82
2019-05-02T04:26:35.104Z,30.65
2019-05-02T04:29:03.972Z,32.05
2019-05-02T04:31:33.859Z,29.52
2019-05-02T04:34:14.171Z,31.42
2019-05-02T04:36:33.298Z,30.43
2019-05-02T04:39:05.659Z,31.37
2019-05-02T04:41:42.012Z,30.82
2019-05-02T04:44:08.913Z,30.10
2019-05-02T04:46:38.769Z,30.57
2019-05-02T04:49:09.105Z,29.50
2019-05-02T04:51:38.221Z,29.42
2019-05-02T04:54:09.307Z,29.50
2019-05-02T04:56:39.729Z,29.52
2019-05-02T04:59:17.757Z,31.27
2019-05-02T05:01:48.377Z,30.92
2019-05-02T05:04:10.159Z,30.23
2019-05-02T05:06:40.890Z,28.67
2019-05-02T05:09:13.488Z,28.25
2019-05-02T05:11:39.845Z,28.77
2019-05-02T05:14:10.057Z,27.45
2019-05-02T05:16:40.044Z,25.35
2019-05-02T05:19:08.977Z,26.82
2019-05-02T05:21:37.659Z,26.73
2019-05-02T05:24:08.004Z,26.23
2019-05-02T05:26:42.970Z,26.45
2019-05-02T05:29:13.956Z,28.77
2019-05-02T05:31:40.571Z,26.35
2019-05-02T05:34:09.843Z,26.52
2019-05-02T05:36:38.669Z,26.30
2019-05-02T05:39:11.562Z,25.88
2019-05-02T05:41:42.717Z,24.90
2019-05-02T05:44:08.627Z,25.55
2019-05-02T05:46:40.980Z,24.63
2019-05-02T05:49:12.543Z,25.75
2019-05-02T05:51:38.105Z,24.98
2019-05-02T05:54:07.709Z,25.40
2019-05-02T05:56:41.885Z,24.07
2019-05-02T05:59:07.862Z,25.17
2019-05-02T06:01:38.407Z,23.12
2019-05-02T06:04:07.971Z,24.05
2019-05-02T06:06:37.792Z,24.27
2019-05-02T06:09:08.126Z,23.02
2019-05-02T06:11:36.798Z,24.90
2019-05-02T06:14:05.887Z,23.18
2019-05-02T06:16:35.451Z,23.22
2019-05-02T06:19:04.471Z,22.90
2019-05-02T06:21:33.141Z,22.07
2019-05-02T06:24:01.895Z,21.10
2019-05-02T06:26:31.139Z,22.52
2019-05-02T06:28:59.982Z,21.85
2019-05-02T06:31:28.979Z,21.97
2019-05-02T06:34:02.016Z,20.95
2019-05-02T06:36:31.987Z,22.00
2019-05-02T06:38:58.647Z,23.20
2019-05-02T06:41:27.327Z,22.40
2019-05-02T06:43:56.064Z,24.12
2019-05-02T06:46:27.806Z,22.25
2019-05-02T06:48:55.287Z,22.62
2019-05-02T06:51:24.048Z,23.02
2019-05-02T06:53:52.911Z,20.77
2019-05-02T06:56:21.634Z,22.13
2019-05-02T06:58:50.377Z,23.67
2019-05-02T07:01:21.276Z,23.40
2019-05-02T07:03:49.724Z,21.65
2019-05-02T07:06:18.597Z,22.22
2019-05-02T07:08:47.663Z,23.32
2019-05-02T07:11:16.304Z,21.20
2019-05-02T07:13:45.013Z,21.15
2019-05-02T07:16:38.356Z,21.37
2019-05-02T07:19:21.595Z,22.85
2019-05-02T07:21:53.153Z,22.20
2019-05-02T07:24:25.165Z,21.37
2019-05-02T07:26:56.801Z,19.98
2019-05-02T07:29:23.718Z,20.75
2019-05-02T07:31:53.575Z,19.98
2019-05-02T07:34:24.294Z,21.10
2019-05-02T07:36:52.982Z,19.92
2019-05-02T07:39:21.756Z,19.05
2019-05-02T07:41:50.651Z,18.17
2019-05-02T07:44:19.425Z,19.05
2019-05-02T07:46:52.087Z,18.35
2019-05-02T07:49:20.965Z,17.32
2019-05-02T07:51:52.329Z,17.70
2019-05-02T07:54:24.908Z,17.87
2019-05-02T07:56:53.391Z,16.90
2019-05-02T07:59:23.416Z,17.07
2019-05-02T08:01:54.408Z,18.42
2019-05-02T08:04:22.344Z,19.12
2019-05-02T08:06:51.109Z,18.85
2019-05-02T08:09:19.842Z,17.35
2019-05-02T08:11:48.615Z,16.23
2019-05-02T08:14:17.290Z,17.98
2019-05-02T08:16:45.976Z,18.10
2019-05-02T08:19:14.630Z,16.35
2019-05-02T08:21:43.351Z,17.23
2019-05-02T08:24:12.105Z,16.27
2019-05-02T08:26:45.440Z,16.45
2019-05-02T08:29:14.276Z,17.25
2019-05-02T08:31:42.991Z,16.67
2019-05-02T08:34:14.976Z,19.25
2019-05-02T08:36:42.056Z,20.77
2019-05-02T08:39:10.841Z,20.92
2019-05-02T08:41:39.506Z,22.25
2019-05-02T08:44:08.282Z,23.67
2019-05-02T08:46:36.985Z,23.07
2019-05-02T08:49:07.205Z,23.47
2019-05-02T08:51:35.901Z,22.20
2019-05-02T08:54:04.832Z,22.52
2019-05-02T08:56:34.961Z,21.60
2019-05-02T08:59:03.956Z,21.65
2019-05-02T09:01:35.290Z,21.35
2019-05-02T09:04:03.115Z,21.60
2019-05-02T09:06:33.447Z,20.27
2019-05-02T09:09:02.251Z,22.25
2019-05-02T09:11:33.591Z,21.45
2019-05-02T09:14:02.376Z,21.82
2019-05-02T09:16:32.795Z,24.20
2019-05-02T09:19:02.749Z,24.92
2019-05-02T09:21:35.838Z,23.80
2019-05-02T09:24:02.607Z,22.70
2019-05-02T09:26:37.777Z,23.05
2019-05-02T09:29:05.357Z,20.32
2019-05-02T09:31:32.223Z,19.65
2019-05-02T09:34:02.714Z,22.35
2019-05-02T09:36:32.304Z,23.02
2019-05-02T09:39:02.613Z,21.35
2019-05-02T09:41:35.989Z,20.23
2019-05-02T09:44:02.895Z,22.37
2019-05-02T09:46:32.478Z,19.80
2019-05-02T09:49:05.409Z,20.55
2019-05-02T09:51:32.423Z,20.88
2019-05-02T09:54:02.617Z,20.23
2019-05-02T09:56:32.539Z,17.67
2019-05-02T09:59:10.026Z,18.02
2019-05-02T10:01:42.237Z,17.90
2019-05-02T10:04:11.985Z,18.30
2019-05-02T10:06:42.950Z,17.25
2019-05-02T10:09:12.070Z,16.20
2019-05-02T10:11:41.809Z,19.15
2019-05-02T10:14:12.474Z,19.80
2019-05-02T10:16:42.626Z,19.40
2019-05-02T10:19:13.473Z,19.55
2019-05-02T10:21:42.291Z,20.72
2019-05-02T10:24:12.658Z,19.82
2019-05-02T10:26:41.998Z,21.82
2019-05-02T10:29:12.690Z,23.73
2019-05-02T10:31:42.111Z,21.33
2019-05-02T10:34:16.195Z,24.23
2019-05-02T10:36:45.265Z,22.52
2019-05-02T10:39:15.682Z,21.30
2019-05-02T10:41:43.995Z,21.70
2019-05-02T10:44:12.942Z,21.55
2019-05-02T10:46:46.350Z,20.25
2019-05-02T10:49:19.540Z,19.95
2019-05-02T10:51:51.269Z,19.80
2019-05-02T10:54:21.194Z,19.02
2019-05-02T10:56:51.718Z,17.82
2019-05-02T10:59:21.993Z,19.05
2019-05-02T11:02:00.082Z,21.20
2019-05-02T11:04:29.352Z,22.65
2019-05-02T11:06:58.317Z,23.60
2019-05-02T11:09:27.028Z,24.07
2019-05-02T11:11:55.785Z,24.05
2019-05-02T11:14:32.431Z,23.52
2019-05-02T11:17:17.677Z,22.70
2019-05-02T11:19:46.954Z,21.42
2019-05-02T11:22:15.806Z,20.70
2019-05-02T11:24:44.506Z,22.50
2019-05-02T11:27:13.175Z,21.52
2019-05-02T11:29:42.554Z,22.37
2019-05-02T11:32:14.162Z,22.62
2019-05-02T11:34:42.905Z,22.80
2019-05-02T11:37:12.221Z,21.33
2019-05-02T11:39:46.375Z,22.00
2019-05-02T11:42:12.506Z,24.52
2019-05-02T11:44:41.841Z,26.77
2019-05-02T11:47:12.590Z,27.05
2019-05-02T11:49:46.762Z,26.27
2019-05-02T11:52:13.120Z,24.47
2019-05-02T11:54:44.722Z,24.43
2019-05-02T11:57:12.374Z,24.12
2019-05-02T11:59:42.486Z,23.75
2019-05-02T12:02:29.446Z,23.12
2019-05-02T12:05:01.846Z,22.13
2019-05-02T12:07:32.455Z,22.95
2019-05-02T12:10:04.159Z,21.85
2019-05-02T12:12:36.169Z,22.82
2019-05-02T12:15:02.620Z,21.37
2019-05-02T12:17:32.641Z,22.45
2019-05-02T12:20:02.142Z,21.00
2019-05-02T12:22:32.453Z,21.62
2019-05-02T12:25:03.011Z,20.10
2019-05-02T12:27:31.931Z,19.40
2019-05-02T12:30:03.113Z,21.37
2019-05-02T12:32:33.459Z,21.05
2019-05-02T12:35:02.573Z,19.55
2019-05-02T12:37:32.706Z,21.10
2019-05-02T12:40:02.687Z,21.20
2019-05-02T12:42:32.985Z,19.67
2019-05-02T12:45:02.900Z,21.42
2019-05-02T12:47:31.989Z,21.00
2019-05-02T12:50:03.144Z,21.48
2019-05-02T12:52:32.124Z,21.52
2019-05-02T12:55:02.251Z,22.60
2019-05-02T12:57:32.126Z,23.47
2019-05-02T13:00:01.859Z,23.38
2019-05-02T13:02:44.728Z,22.48
2019-05-02T13:05:13.678Z,24.52
2019-05-02T13:07:50.689Z,23.42
2019-05-02T13:10:17.744Z,23.55
2019-05-02T13:12:46.548Z,22.85
2019-05-02T13:15:15.795Z,24.37
2019-05-02T13:17:48.973Z,24.35
2019-05-02T13:20:16.796Z,21.95
2019-05-02T13:22:56.089Z,22.55
2019-05-02T13:25:27.247Z,21.62
2019-05-02T13:27:56.939Z,20.77
2019-05-02T13:30:27.281Z,20.27
2019-05-02T13:32:58.080Z,21.00
2019-05-02T13:35:32.377Z,19.48
2019-05-02T13:40:33.522Z,19.07
2019-05-02T13:43:02.307Z,19.98
2019-05-02T13:45:38.661Z,18.48
2019-05-02T13:48:07.539Z,18.45
2019-05-02T13:50:36.220Z,19.30
2019-05-02T13:53:04.973Z,18.30
2019-05-02T13:55:35.313Z,17.77
2019-05-02T13:58:04.139Z,17.27
2019-05-02T14:00:46.573Z,17.07
2019-05-02T14:03:15.612Z,17.27
2019-05-02T14:05:50.882Z,14.90
2019-05-02T14:08:27.486Z,13.55
2019-05-02T14:10:55.971Z,12.93
2019-05-02T14:13:24.767Z,11.70
2019-05-02T14:15:53.471Z,12.13
2019-05-02T14:18:28.704Z,11.90
2019-05-02T14:20:52.799Z,11.73
2019-05-02T14:23:22.141Z,10.72
2019-05-02T14:25:52.046Z,8.93
2019-05-02T14:28:22.422Z,9.03
2019-05-02T14:30:52.873Z,9.48
2019-05-02T14:33:23.426Z,10.25
2019-05-02T14:35:53.769Z,9.13
2019-05-02T14:38:22.545Z,8.95
2019-05-02T14:40:57.175Z,9.08
2019-05-02T14:43:48.010Z,8.80
2019-05-02T14:46:17.624Z,8.30
2019-05-02T14:48:46.535Z,8.30
2019-05-02T14:51:16.562Z,8.80
2019-05-02T14:53:46.287Z,8.83
2019-05-02T14:56:16.646Z,9.60
2019-05-02T14:58:45.308Z,8.58
2019-05-02T15:01:17.235Z,8.75
2019-05-02T15:03:46.123Z,9.00
2019-05-02T15:06:14.892Z,8.75
2019-05-02T15:08:44.993Z,8.63
2019-05-02T15:11:15.850Z,8.28
2019-05-02T15:13:44.608Z,8.40
2019-05-02T15:16:17.559Z,8.98
2019-05-02T15:18:47.685Z,8.65
2019-05-02T15:21:22.880Z,8.60
2019-05-02T15:23:54.352Z,8.63
2019-05-02T15:26:26.277Z,8.55
2019-05-02T15:28:52.604Z,9.28
2019-05-02T15:31:34.284Z,8.18
2019-05-02T15:34:06.799Z,8.68
2019-05-02T15:36:37.035Z,8.48
2019-05-02T15:41:44.799Z,8.63
2019-05-02T15:44:14.015Z,8.35
2019-05-02T15:46:42.742Z,8.60
2019-05-02T15:49:12.282Z,9.28
2019-05-02T15:51:43.752Z,9.35
2019-05-02T15:54:12.505Z,9.80
2019-05-02T15:57:05.445Z,9.20
2019-05-02T15:59:37.092Z,8.70
2019-05-02T16:02:06.758Z,9.50
2019-05-02T16:04:37.081Z,9.55
2019-05-02T16:07:12.052Z,10.18
2019-05-02T16:09:41.512Z,9.00
2019-05-02T16:12:12.032Z,9.43
2019-05-02T16:14:42.651Z,10.23
2019-05-02T16:17:12.538Z,9.48
2019-05-02T16:19:43.140Z,8.80
2019-05-02T16:22:16.199Z,8.33
2019-05-02T16:24:49.114Z,9.58
2019-05-02T16:27:16.466Z,9.33
2019-05-02T16:29:48.266Z,8.63
2019-05-02T16:32:18.622Z,6.55
2019-05-02T16:34:57.919Z,5.45
2019-05-02T16:37:26.606Z,4.55
2019-05-02T16:39:55.272Z,4.00
2019-05-02T16:42:24.060Z,4.33
2019-05-02T16:44:54.679Z,4.33
2019-05-02T16:47:23.483Z,4.85
2019-05-02T16:49:56.429Z,4.10
2019-05-02T16:52:32.545Z,4.80
2019-05-02T16:54:59.283Z,4.45
2019-05-02T16:57:34.998Z,5.15
2019-05-02T17:02:37.828Z,4.20
2019-05-02T17:05:09.229Z,3.95
2019-05-02T17:07:48.799Z,3.80
2019-05-02T17:10:25.003Z,4.22
2019-05-02T17:12:57.647Z,4.58
2019-05-02T17:15:31.425Z,5.92
2019-05-02T17:17:59.413Z,6.37
2019-05-02T17:20:28.245Z,5.67
2019-05-02T17:23:05.373Z,6.97
2019-05-02T17:25:32.261Z,6.97
2019-05-02T17:28:05.779Z,7.78
2019-05-02T17:30:38.558Z,9.43
2019-05-02T17:33:02.173Z,9.98
2019-05-02T17:35:32.546Z,7.85
2019-05-02T17:38:02.499Z,15.30
2019-05-02T17:40:31.513Z,11.53
2019-05-02T17:43:02.764Z,9.35
2019-05-02T17:45:33.531Z,8.53
2019-05-02T17:48:01.325Z,7.60
2019-05-02T17:50:49.553Z,7.92
2019-05-02T17:53:18.626Z,7.83
2019-05-02T17:55:47.487Z,7.60
2019-05-02T17:58:16.717Z,7.17
2019-05-02T18:00:51.289Z,7.65
2019-05-02T18:03:18.036Z,7.03
2019-05-02T18:05:46.785Z,7.70
2019-05-02T18:08:15.634Z,7.37
2019-05-02T18:10:44.370Z,6.35
2019-05-02T18:13:13.090Z,6.95
2019-05-02T18:15:41.869Z,6.75
2019-05-02T18:18:11.124Z,7.25
2019-05-02T18:20:44.050Z,8.20
2019-05-02T18:23:12.101Z,6.90
2019-05-02T18:25:40.944Z,7.20
2019-05-02T18:28:14.063Z,8.13
2019-05-02T18:30:41.712Z,7.60
2019-05-02T18:33:11.992Z,6.90
2019-05-02T18:35:45.237Z,7.37
2019-05-02T18:38:11.404Z,7.15
2019-05-02T18:40:40.084Z,7.12
2019-05-02T18:43:08.917Z,8.10
2019-05-02T18:45:37.676Z,7.25
2019-05-02T18:48:06.997Z,5.90
2019-05-02T18:50:44.310Z,6.30
2019-05-02T18:53:10.184Z,6.03
2019-05-02T18:55:39.369Z,6.05
2019-05-02T18:58:09.126Z,5.58
2019-05-02T19:00:39.627Z,6.40
2019-05-02T19:03:13.413Z,6.22
2019-05-02T19:05:42.206Z,6.42
2019-05-02T19:08:12.071Z,6.17
2019-05-02T19:10:44.743Z,6.95
2019-05-02T19:13:12.707Z,5.97
2019-05-02T19:15:47.266Z,6.10
2019-05-02T19:18:17.969Z,6.60
2019-05-02T19:20:57.392Z,6.97
2019-05-02T19:23:25.116Z,6.97
2019-05-02T19:25:53.806Z,6.72
2019-05-02T19:28:34.696Z,6.70
2019-05-02T19:31:03.045Z,6.03
2019-05-02T19:33:31.915Z,6.40
2019-05-02T19:36:02.682Z,7.08
2019-05-02T19:38:32.436Z,5.85
2019-05-02T19:41:05.493Z,6.65
2019-05-02T19:43:34.867Z,6.85
2019-05-02T19:46:02.820Z,6.25
2019-05-02T19:48:32.980Z,6.87
2019-05-02T19:51:02.572Z,7.92
2019-05-02T19:53:32.452Z,6.85
2019-05-02T19:56:02.975Z,6.80
2019-05-02T19:58:36.866Z,7.00
2019-05-02T20:01:03.206Z,6.15
2019-05-02T20:03:32.440Z,6.22
2019-05-02T20:06:05.811Z,6.45
2019-05-02T20:08:32.639Z,6.45
2019-05-02T20:11:02.171Z,6.33
2019-05-02T20:13:32.610Z,5.60
2019-05-02T20:16:05.808Z,6.08
2019-05-02T20:18:34.899Z,5.70
2019-05-02T20:24:09.196Z,5.33
2019-05-02T20:26:36.429Z,5.37
2019-05-02T20:29:05.137Z,4.65
2019-05-02T20:31:33.898Z,4.35
2019-05-02T20:34:02.696Z,4.67
2019-05-02T20:36:32.112Z,4.42
2019-05-02T20:39:02.327Z,4.67
2019-05-02T20:41:31.233Z,3.98
2019-05-02T20:43:59.998Z,4.83
2019-05-02T20:46:28.734Z,4.47
2019-05-02T20:48:57.439Z,4.83
2019-05-02T20:51:26.169Z,4.50
2019-05-02T20:53:54.853Z,4.10
2019-05-02T20:56:23.645Z,5.33
2019-05-02T20:58:52.731Z,4.17
2019-05-02T21:01:21.857Z,4.67
2019-05-02T21:03:52.097Z,4.40
2019-05-02T21:06:43.566Z,4.28
2019-05-02T21:09:15.501Z,4.28
2019-05-02T21:11:45.879Z,4.97
2019-05-02T21:14:14.651Z,4.87
2019-05-02T21:16:43.460Z,5.05
2019-05-02T21:19:12.448Z,5.05
2019-05-02T21:21:42.685Z,4.87
2019-05-02T21:24:11.593Z,4.72
2019-05-02T21:26:41.972Z,4.55
2019-05-02T21:29:12.171Z,5.00
2019-05-02T21:31:42.524Z,4.37
2019-05-02T21:34:11.764Z,4.97
2019-05-02T21:36:42.535Z,4.37
2019-05-02T21:39:15.236Z,4.62
2019-05-02T21:41:44.066Z,4.42
2019-05-02T21:44:13.239Z,4.90
2019-05-02T21:46:42.465Z,4.55
2019-05-02T21:49:12.049Z,4.50
2019-05-02T21:51:51.879Z,4.35
2019-05-02T21:54:37.616Z,4.58
2019-05-02T21:57:07.972Z,4.47
2019-05-02T21:59:36.770Z,4.17
2019-05-02T22:02:07.746Z,4.45
2019-05-02T22:04:36.468Z,4.80
2019-05-02T22:07:05.456Z,4.47
2019-05-02T22:09:34.193Z,4.47
2019-05-02T22:12:02.965Z,4.67
2019-05-02T22:14:32.852Z,4.35
2019-05-02T22:17:02.306Z,3.90
2019-05-02T22:19:32.319Z,4.50
2019-05-02T22:22:01.660Z,4.30
2019-05-02T22:24:30.505Z,4.03
2019-05-02T22:26:59.288Z,4.00
2019-05-02T22:29:28.012Z,4.05
2019-05-02T22:31:56.804Z,4.37
2019-05-02T22:34:25.524Z,4.47
2019-05-02T22:36:54.434Z,4.97
2019-05-02T22:39:33.636Z,4.50
2019-05-02T22:42:04.705Z,4.70
2019-05-02T22:44:32.860Z,4.70
2019-05-02T22:47:01.620Z,4.87
2019-05-02T22:49:31.876Z,4.92
2019-05-02T22:52:00.963Z,4.65
2019-05-02T22:54:31.538Z,4.75
2019-05-02T22:57:00.171Z,4.95
2019-05-02T22:59:31.558Z,5.00
2019-05-02T23:01:59.779Z,4.60
2019-05-02T23:04:28.473Z,4.83
2019-05-02T23:06:57.185Z,5.08
2019-05-02T23:09:25.879Z,5.15
2019-05-02T23:11:54.652Z,5.17
2019-05-02T23:14:23.397Z,5.20
2019-05-02T23:16:52.761Z,4.40
2019-05-02T23:19:23.012Z,5.08
2019-05-02T23:21:52.596Z,4.78
2019-05-02T23:24:35.973Z,5.20
2019-05-02T23:26:55.363Z,5.65
2019-05-02T23:29:24.126Z,5.08
2019-05-02T23:31:52.842Z,5.17
2019-05-02T23:34:23.532Z,5.08
2019-05-02T23:36:52.381Z,4.87
2019-05-02T23:39:21.169Z,4.35
2019-05-02T23:41:49.850Z,4.95
2019-05-02T23:44:18.635Z,4.78
2019-05-02T23:46:47.408Z,4.83
2019-05-02T23:49:16.137Z,4.45
2019-05-02T23:51:44.875Z,4.35
2019-05-02T23:54:13.587Z,4.62
2019-05-02T23:56:43.126Z,4.70
2019-05-02T23:59:12.300Z,4.78
